createdAt,value
2023-03-12T00:00:15.431Z,1.73
2023-03-12T00:02:44.690Z,2.00
2023-03-12T00:05:12.728Z,1.90
2023-03-12T00:07:40.627Z,1.90
2023-03-12T00:10:09.662Z,1.67
2023-03-12T00:12:37.584Z,1.90
2023-03-12T00:15:06.695Z,1.77
2023-03-12T00:17:34.550Z,1.53
2023-03-12T00:20:05.207Z,1.93
2023-03-12T00:22:33.143Z,1.50
2023-03-12T00:25:01.066Z,1.87
2023-03-12T00:27:29.602Z,1.73
2023-03-12T00:29:57.661Z,2.20
2023-03-12T00:32:26.616Z,1.60
2023-03-12T00:34:56.176Z,2.20
2023-03-12T00:37:25.477Z,1.83
2023-03-12T00:39:53.407Z,1.90
2023-03-12T00:42:21.538Z,2.10
2023-03-12T00:44:49.403Z,1.60
2023-03-12T00:47:17.302Z,2.20
2023-03-12T00:49:45.208Z,2.17
2023-03-12T00:52:13.189Z,2.00
2023-03-12T00:54:42.369Z,1.60
2023-03-12T00:57:10.231Z,2.27
2023-03-12T00:59:40.389Z,2.00
2023-03-12T01:02:08.673Z,1.87
2023-03-12T01:04:36.546Z,1.70
2023-03-12T01:07:04.573Z,2.10
2023-03-12T01:09:32.399Z,2.10
2023-03-12T01:12:01.620Z,2.40
2023-03-12T01:14:29.518Z,1.80
2023-03-12T01:16:57.407Z,2.30
2023-03-12T01:19:25.263Z,2.20
2023-03-12T01:21:53.152Z,2.63
2023-03-12T01:24:20.976Z,1.77
2023-03-12T01:26:48.820Z,2.10
2023-03-12T01:29:18.053Z,2.00
2023-03-12T01:31:45.978Z,2.20
2023-03-12T01:34:14.016Z,2.30
2023-03-12T01:36:42.312Z,2.37
2023-03-12T01:39:10.215Z,2.23
2023-03-12T01:41:38.159Z,2.00
2023-03-12T01:44:07.657Z,2.30
2023-03-12T01:46:38.787Z,1.80
2023-03-12T01:49:10.837Z,1.87
2023-03-12T01:51:42.647Z,2.03
2023-03-12T01:54:16.584Z,2.30
2023-03-12T01:56:44.630Z,2.17
2023-03-12T01:59:17.029Z,2.00
2023-03-12T02:01:47.238Z,2.00
2023-03-12T02:04:17.220Z,2.30
2023-03-12T02:06:49.449Z,2.33
2023-03-12T02:09:20.077Z,2.00
2023-03-12T02:11:48.073Z,2.30
2023-03-12T02:14:16.158Z,2.30
2023-03-12T02:16:46.229Z,2.40
2023-03-12T02:19:22.192Z,3.40
2023-03-12T02:21:50.350Z,2.73
2023-03-12T02:24:25.325Z,2.33
2023-03-12T02:26:54.601Z,2.30
2023-03-12T02:29:23.053Z,2.30
2023-03-12T02:31:54.766Z,2.30
2023-03-12T02:34:22.679Z,2.50
2023-03-12T02:36:50.920Z,2.57
2023-03-12T02:39:19.588Z,2.67
2023-03-12T02:41:53.197Z,2.30
2023-03-12T02:44:24.919Z,2.37
2023-03-12T02:46:54.840Z,2.43
2023-03-12T02:49:24.311Z,2.30
2023-03-12T02:51:53.261Z,2.67
2023-03-12T02:54:22.698Z,2.23
2023-03-12T02:56:51.136Z,2.20
2023-03-12T02:59:21.798Z,2.67
2023-03-12T03:01:55.458Z,2.43
2023-03-12T03:04:23.721Z,2.43
2023-03-12T03:06:52.336Z,2.00
2023-03-12T03:09:22.092Z,2.57
2023-03-12T03:11:50.399Z,2.60
2023-03-12T03:14:18.876Z,2.63
2023-03-12T03:16:46.797Z,1.83
2023-03-12T03:19:16.044Z,2.23
2023-03-12T03:21:44.196Z,2.30
2023-03-12T03:24:12.264Z,2.93
2023-03-12T03:26:40.211Z,2.53
2023-03-12T03:29:08.086Z,2.40
2023-03-12T03:31:35.947Z,2.70
2023-03-12T03:34:04.910Z,2.67
2023-03-12T03:36:34.099Z,2.43
2023-03-12T03:39:01.976Z,2.57
2023-03-12T03:41:29.801Z,2.80
2023-03-12T03:43:59.336Z,2.40
2023-03-12T03:46:27.791Z,2.23
2023-03-12T03:48:55.646Z,2.60
2023-03-12T03:51:23.574Z,1.73
2023-03-12T03:53:52.826Z,2.50
2023-03-12T03:56:20.838Z,2.40
2023-03-12T03:58:48.687Z,3.00
2023-03-12T04:01:16.923Z,2.47
2023-03-12T04:03:44.845Z,2.47
2023-03-12T04:06:13.444Z,2.57
2023-03-12T04:08:41.573Z,2.40
2023-03-12T04:11:12.850Z,2.40
2023-03-12T04:13:40.725Z,2.83
2023-03-12T04:16:09.469Z,2.40
2023-03-12T04:18:37.911Z,3.20
2023-03-12T04:21:10.897Z,2.20
2023-03-12T04:23:39.280Z,2.50
2023-03-12T04:26:08.054Z,2.17
2023-03-12T04:28:38.157Z,2.97
2023-03-12T04:31:08.312Z,2.50
2023-03-12T04:33:38.270Z,2.57
2023-03-12T04:36:07.253Z,2.33
2023-03-12T04:38:35.555Z,2.60
2023-03-12T04:41:06.060Z,2.70
2023-03-12T04:43:34.327Z,2.90
2023-03-12T04:46:04.567Z,2.40
2023-03-12T04:48:33.048Z,2.53
2023-03-12T04:51:00.912Z,2.57
2023-03-12T04:53:28.828Z,2.73
2023-03-12T04:55:56.702Z,2.17
2023-03-12T04:58:24.655Z,3.00
2023-03-12T05:00:52.703Z,2.53
2023-03-12T05:03:22.093Z,2.40
2023-03-12T05:05:49.932Z,2.47
2023-03-12T05:08:17.791Z,2.60
2023-03-12T05:10:46.197Z,2.30
2023-03-12T05:13:16.078Z,2.50
2023-03-12T05:15:44.495Z,2.97
2023-03-12T05:18:12.480Z,2.67
2023-03-12T05:20:41.767Z,2.77
2023-03-12T05:23:09.627Z,2.23
2023-03-12T05:25:40.120Z,2.23
2023-03-12T05:28:08.312Z,2.70
2023-03-12T05:30:36.299Z,2.57
2023-03-12T05:33:04.329Z,2.30
2023-03-12T05:35:32.322Z,2.60
2023-03-12T05:38:01.574Z,2.40
2023-03-12T05:40:29.578Z,2.23
2023-03-12T05:42:57.518Z,2.37
2023-03-12T05:45:25.384Z,3.30
2023-03-12T05:47:53.233Z,2.13
2023-03-12T05:50:21.232Z,2.83
2023-03-12T05:52:49.069Z,2.33
2023-03-12T05:55:18.453Z,2.73
2023-03-12T05:57:46.583Z,2.97
2023-03-12T06:00:16.512Z,2.20
2023-03-12T06:02:44.484Z,2.77
2023-03-12T06:05:12.647Z,2.60
2023-03-12T06:07:40.540Z,2.83
2023-03-12T06:10:09.794Z,2.60
2023-03-12T06:12:39.524Z,2.50
2023-03-12T06:15:08.161Z,2.73
2023-03-12T06:17:36.020Z,2.37
2023-03-12T06:20:04.418Z,2.83
2023-03-12T06:22:32.328Z,3.00
2023-03-12T06:25:00.218Z,2.67
2023-03-12T06:27:28.117Z,2.67
2023-03-12T06:29:57.350Z,2.93
2023-03-12T06:32:26.065Z,2.93
2023-03-12T06:34:53.975Z,2.37
2023-03-12T06:37:21.809Z,2.40
2023-03-12T06:39:49.667Z,2.20
2023-03-12T06:42:18.496Z,3.00
2023-03-12T06:44:46.445Z,2.50
2023-03-12T06:47:17.573Z,2.47
2023-03-12T06:49:46.006Z,3.10
2023-03-12T06:52:13.875Z,2.37
2023-03-12T06:54:42.042Z,2.33
2023-03-12T06:57:09.961Z,3.13
2023-03-12T06:59:37.804Z,2.37
2023-03-12T07:02:05.850Z,3.30
2023-03-12T07:04:36.203Z,2.70
2023-03-12T07:07:04.830Z,2.50
2023-03-12T07:09:32.690Z,2.73
2023-03-12T07:12:00.534Z,2.37
2023-03-12T07:14:28.396Z,3.20
2023-03-12T07:16:57.042Z,2.67
2023-03-12T07:19:24.855Z,2.90
2023-03-12T07:21:54.034Z,3.00
2023-03-12T07:24:21.897Z,2.20
2023-03-12T07:26:49.835Z,2.87
2023-03-12T07:29:17.684Z,2.80
2023-03-12T07:31:45.677Z,2.50
2023-03-12T07:34:13.821Z,2.93
2023-03-12T07:36:41.818Z,2.50
2023-03-12T07:39:11.061Z,2.27
2023-03-12T07:41:39.091Z,2.57
2023-03-12T07:44:07.093Z,2.27
2023-03-12T07:46:35.033Z,2.80
2023-03-12T07:49:02.934Z,3.57
2023-03-12T07:51:30.769Z,2.27
2023-03-12T07:53:58.685Z,2.70
2023-03-12T07:56:27.895Z,2.50
2023-03-12T07:58:56.161Z,2.77
2023-03-12T08:01:25.398Z,2.40
2023-03-12T08:03:53.414Z,2.10
2023-03-12T08:06:21.768Z,2.63
2023-03-12T08:08:49.654Z,2.50
2023-03-12T08:11:17.581Z,2.83
2023-03-12T08:13:46.783Z,2.60
2023-03-12T08:16:15.592Z,2.13
2023-03-12T08:18:44.416Z,1.97
2023-03-12T08:21:16.373Z,2.90
2023-03-12T08:23:44.439Z,2.13
2023-03-12T08:26:12.500Z,2.40
2023-03-12T08:28:40.758Z,2.70
2023-03-12T08:31:10.467Z,2.23
2023-03-12T08:33:41.163Z,2.20
2023-03-12T08:36:09.883Z,2.00
2023-03-12T08:38:37.870Z,2.43
2023-03-12T08:41:05.991Z,2.40
2023-03-12T08:43:33.838Z,2.40
2023-03-12T08:46:03.577Z,2.43
2023-03-12T08:48:33.308Z,2.80
2023-03-12T08:51:04.139Z,2.17
2023-03-12T08:53:33.520Z,2.60
2023-03-12T08:56:01.823Z,2.40
2023-03-12T08:58:30.549Z,2.10
2023-03-12T09:00:59.206Z,2.40
2023-03-12T09:03:27.731Z,2.20
2023-03-12T09:06:06.566Z,2.27
2023-03-12T09:08:34.436Z,2.33
2023-03-12T09:11:03.020Z,2.30
2023-03-12T09:13:50.789Z,2.20
2023-03-12T09:16:18.955Z,2.27
2023-03-12T09:18:46.807Z,2.20
2023-03-12T09:21:16.010Z,2.60
2023-03-12T09:23:43.900Z,2.23
2023-03-12T09:26:12.327Z,2.10
2023-03-12T09:28:40.393Z,2.50
2023-03-12T09:31:08.309Z,2.37
2023-03-12T09:33:36.304Z,1.90
2023-03-12T09:36:04.918Z,2.40
2023-03-12T09:38:35.490Z,2.40
2023-03-12T09:41:05.559Z,2.33
2023-03-12T09:43:38.677Z,1.93
2023-03-12T09:46:14.751Z,2.13
2023-03-12T09:48:44.757Z,2.03
2023-03-12T09:51:19.046Z,2.30
2023-03-12T09:53:52.594Z,2.40
2023-03-12T09:56:22.839Z,2.53
2023-03-12T09:58:54.530Z,2.30
2023-03-12T10:01:36.493Z,2.27
2023-03-12T10:04:26.435Z,2.50
2023-03-12T10:07:01.543Z,2.20
2023-03-12T10:09:50.522Z,2.33
2023-03-12T10:12:25.536Z,2.10
2023-03-12T10:15:04.937Z,2.50
2023-03-12T10:17:43.500Z,2.30
2023-03-12T10:20:35.414Z,1.83
2023-03-12T10:23:10.145Z,2.17
2023-03-12T10:25:43.175Z,1.97
2023-03-12T10:28:18.333Z,1.80
2023-03-12T10:30:52.647Z,2.37
2023-03-12T10:33:21.954Z,1.90
2023-03-12T10:35:51.045Z,1.93
2023-03-12T10:38:25.263Z,2.40
2023-03-12T10:40:54.441Z,2.30
2023-03-12T10:43:22.513Z,1.87
2023-03-12T10:46:02.727Z,2.10
2023-03-12T10:48:30.677Z,1.90
2023-03-12T10:51:04.108Z,2.50
2023-03-12T10:53:34.605Z,1.93
2023-03-12T10:56:07.020Z,2.10
2023-03-12T10:58:37.525Z,1.77
2023-03-12T11:01:07.411Z,1.90
2023-03-12T11:03:35.641Z,2.20
2023-03-12T11:06:07.723Z,2.00
2023-03-12T11:08:37.507Z,3.80
2023-03-12T11:11:07.249Z,2.53
2023-03-12T11:13:36.574Z,1.77
2023-03-12T11:16:22.945Z,1.93
2023-03-12T11:18:56.510Z,1.90
2023-03-12T11:21:24.880Z,2.43
2023-03-12T11:24:08.235Z,2.00
2023-03-12T11:26:44.080Z,1.70
2023-03-12T11:29:23.341Z,2.33
2023-03-12T11:32:00.313Z,1.60
2023-03-12T11:34:31.179Z,1.90
2023-03-12T11:37:07.299Z,2.13
2023-03-12T11:39:45.644Z,2.20
2023-03-12T11:42:28.870Z,1.97
2023-03-12T11:45:06.236Z,1.73
2023-03-12T11:47:49.898Z,1.90
2023-03-12T11:50:29.345Z,1.87
2023-03-12T11:53:14.748Z,1.50
2023-03-12T11:56:01.670Z,1.60
2023-03-12T11:58:48.732Z,1.80
2023-03-12T12:01:24.705Z,2.30
2023-03-12T12:04:27.774Z,1.80
2023-03-12T12:07:04.430Z,1.70
2023-03-12T12:09:39.792Z,1.70
2023-03-12T12:12:18.834Z,1.93
2023-03-12T12:15:05.236Z,1.93
2023-03-12T12:17:45.086Z,1.70
2023-03-12T12:20:22.196Z,1.87
2023-03-12T12:23:05.653Z,1.47
2023-03-12T12:25:42.232Z,1.80
2023-03-12T12:28:27.114Z,1.93
2023-03-12T12:31:11.644Z,1.80
2023-03-12T12:33:53.088Z,1.63
2023-03-12T12:36:21.054Z,1.87
2023-03-12T12:38:55.048Z,1.90
2023-03-12T12:41:25.977Z,1.40
2023-03-12T12:43:59.209Z,1.50
2023-03-12T12:46:33.670Z,1.50
2023-03-12T12:49:04.585Z,1.53
2023-03-12T12:51:36.568Z,1.53
2023-03-12T12:54:09.631Z,1.90
2023-03-12T12:56:47.093Z,1.37
2023-03-12T12:59:34.038Z,1.60
2023-03-12T13:02:05.621Z,1.67
2023-03-12T13:04:35.990Z,1.63
2023-03-12T13:07:05.578Z,2.00
2023-03-12T13:09:40.089Z,1.10
2023-03-12T13:12:16.563Z,1.93
2023-03-12T13:14:46.267Z,1.70
2023-03-12T13:17:28.050Z,1.63
2023-03-12T13:20:02.065Z,1.90
2023-03-12T13:22:46.587Z,1.60
2023-03-12T13:25:27.721Z,1.50
2023-03-12T13:27:59.961Z,1.50
2023-03-12T13:30:47.594Z,1.37
2023-03-12T13:33:19.216Z,1.37
2023-03-12T13:36:04.219Z,1.50
2023-03-12T13:38:36.934Z,1.83
2023-03-12T13:41:07.569Z,1.53
2023-03-12T13:43:51.486Z,1.53
2023-03-12T13:46:30.753Z,1.53
2023-03-12T13:49:04.918Z,1.60
2023-03-12T13:51:33.121Z,1.67
2023-03-12T13:54:03.805Z,1.70
2023-03-12T13:56:33.575Z,1.10
2023-03-12T13:59:03.586Z,1.57
2023-03-12T14:01:35.991Z,1.60
2023-03-12T14:04:09.424Z,1.20
2023-03-12T14:06:55.030Z,1.27
2023-03-12T14:09:30.817Z,1.40
2023-03-12T14:12:07.425Z,1.50
2023-03-12T14:15:00.060Z,1.60
2023-03-12T14:17:30.180Z,1.50
2023-03-12T14:20:04.864Z,1.40
2023-03-12T14:22:35.388Z,1.07
2023-03-12T14:25:13.126Z,1.30
2023-03-12T14:27:41.824Z,1.70
2023-03-12T14:30:14.391Z,1.17
2023-03-12T14:32:44.873Z,1.80
2023-03-12T14:35:21.714Z,1.23
2023-03-12T14:37:55.670Z,1.10
2023-03-12T14:40:27.184Z,1.33
2023-03-12T14:42:56.616Z,1.37
2023-03-12T14:45:24.554Z,1.30
2023-03-12T14:47:55.032Z,1.30
2023-03-12T14:50:26.251Z,1.10
2023-03-12T14:52:54.837Z,1.30
2023-03-12T14:55:25.593Z,1.60
2023-03-12T14:58:05.716Z,1.33
2023-03-12T15:00:34.468Z,1.23
2023-03-12T15:03:06.366Z,1.20
2023-03-12T15:05:36.900Z,1.40
2023-03-12T15:08:05.346Z,1.17
2023-03-12T15:10:34.792Z,1.30
2023-03-12T15:13:04.005Z,1.60
2023-03-12T15:15:37.823Z,1.20
2023-03-12T15:18:07.734Z,1.17
2023-03-12T15:20:37.408Z,1.30
2023-03-12T15:23:06.677Z,1.40
2023-03-12T15:25:35.806Z,1.00
2023-03-12T15:28:07.119Z,1.23
2023-03-12T15:30:36.433Z,1.10
2023-03-12T15:33:09.818Z,1.40
2023-03-12T15:35:41.514Z,1.30
2023-03-12T15:38:16.570Z,1.30
2023-03-12T15:40:50.191Z,1.30
2023-03-12T15:43:20.965Z,1.33
2023-03-12T15:45:50.096Z,1.50
2023-03-12T15:48:26.140Z,1.40
2023-03-12T15:50:55.479Z,1.30
2023-03-12T15:53:28.607Z,1.13
2023-03-12T15:56:03.978Z,1.13
2023-03-12T15:58:33.559Z,1.50
2023-03-12T16:01:12.433Z,1.30
2023-03-12T16:03:41.129Z,1.23
2023-03-12T16:06:14.665Z,1.10
2023-03-12T16:08:46.806Z,1.20
2023-03-12T16:11:18.169Z,1.00
2023-03-12T16:13:48.542Z,1.47
2023-03-12T16:16:16.545Z,1.70
2023-03-12T16:18:45.231Z,1.17
2023-03-12T16:21:14.453Z,1.30
2023-03-12T16:23:42.317Z,1.10
2023-03-12T16:26:10.205Z,1.30
2023-03-12T16:28:38.184Z,1.17
2023-03-12T16:31:12.370Z,1.33
2023-03-12T16:33:40.469Z,0.90
2023-03-12T16:36:15.689Z,1.20
2023-03-12T16:38:44.336Z,1.00
2023-03-12T16:41:14.615Z,1.10
2023-03-12T16:43:44.259Z,1.37
2023-03-12T16:46:16.325Z,1.13
2023-03-12T16:48:44.219Z,1.13
2023-03-12T16:51:16.536Z,1.10
2023-03-12T16:53:46.363Z,1.30
2023-03-12T16:56:19.143Z,1.30
2023-03-12T16:58:48.361Z,1.10
2023-03-12T17:01:18.747Z,1.40
2023-03-12T17:03:49.408Z,1.20
2023-03-12T17:06:20.328Z,1.27
2023-03-12T17:08:48.695Z,0.97
2023-03-12T17:11:19.489Z,1.17
2023-03-12T17:13:48.557Z,1.13
2023-03-12T17:16:16.437Z,1.13
2023-03-12T17:18:44.416Z,1.37
2023-03-12T17:21:13.257Z,1.10
2023-03-12T17:23:43.043Z,1.10
2023-03-12T17:26:11.371Z,1.00
2023-03-12T17:28:40.021Z,1.20
2023-03-12T17:31:08.079Z,1.00
2023-03-12T17:33:38.099Z,1.57
2023-03-12T17:36:08.208Z,1.40
2023-03-12T17:38:36.895Z,1.07
2023-03-12T17:41:23.383Z,1.00
2023-03-12T17:43:53.738Z,1.30
2023-03-12T17:46:21.784Z,1.20
2023-03-12T17:48:49.756Z,1.00
2023-03-12T17:51:17.618Z,0.90
2023-03-12T17:53:45.500Z,1.27
2023-03-12T17:56:17.795Z,1.10
2023-03-12T17:58:45.804Z,1.70
2023-03-12T18:01:13.654Z,1.07
2023-03-12T18:03:43.785Z,1.27
2023-03-12T18:06:12.199Z,1.10
2023-03-12T18:08:40.249Z,1.20
2023-03-12T18:11:08.301Z,1.00
2023-03-12T18:13:39.823Z,1.10
2023-03-12T18:16:08.818Z,1.20
2023-03-12T18:18:36.715Z,0.93
2023-03-12T18:21:04.956Z,1.00
2023-03-12T18:23:32.853Z,0.97
2023-03-12T18:26:00.729Z,1.00
2023-03-12T18:28:28.667Z,1.33
2023-03-12T18:30:57.959Z,1.30
2023-03-12T18:33:25.955Z,1.10
2023-03-12T18:35:54.655Z,1.03
2023-03-12T18:38:22.590Z,1.43
2023-03-12T18:40:51.317Z,1.30
2023-03-12T18:43:21.470Z,1.30
2023-03-12T18:45:51.246Z,0.90
2023-03-12T18:48:20.420Z,1.20
2023-03-12T18:50:48.263Z,1.07
2023-03-12T18:53:16.136Z,0.93
2023-03-12T18:55:52.614Z,1.00
2023-03-12T18:58:20.613Z,1.23
2023-03-12T19:00:48.476Z,1.40
2023-03-12T19:03:16.356Z,1.00
2023-03-12T19:05:45.699Z,1.70
2023-03-12T19:08:13.591Z,1.03
2023-03-12T19:10:42.815Z,1.37
2023-03-12T19:13:10.699Z,1.30
2023-03-12T19:15:39.863Z,1.30
2023-03-12T19:18:07.798Z,1.10
2023-03-12T19:20:36.505Z,1.20
2023-03-12T19:23:05.736Z,1.00
2023-03-12T19:25:33.734Z,1.30
2023-03-12T19:28:01.650Z,1.53
2023-03-12T19:30:30.685Z,1.37
2023-03-12T19:32:58.577Z,1.10
2023-03-12T19:35:26.756Z,1.23
2023-03-12T19:37:54.829Z,1.20
2023-03-12T19:40:24.003Z,1.60
2023-03-12T19:42:51.881Z,1.20
2023-03-12T19:45:19.725Z,1.50
2023-03-12T19:47:47.672Z,1.10
2023-03-12T19:50:19.615Z,1.40
2023-03-12T19:52:47.631Z,1.70
2023-03-12T19:55:15.753Z,1.40
2023-03-12T19:57:45.012Z,1.30
2023-03-12T20:00:14.055Z,1.20
2023-03-12T20:02:42.272Z,1.30
2023-03-12T20:05:11.036Z,1.10
2023-03-12T20:07:39.107Z,1.67
2023-03-12T20:10:09.926Z,1.50
2023-03-12T20:12:38.377Z,1.33
2023-03-12T20:15:08.771Z,1.10
2023-03-12T20:17:36.998Z,1.33
2023-03-12T20:20:07.076Z,1.40
2023-03-12T20:22:36.230Z,0.97
2023-03-12T20:25:05.235Z,1.30
2023-03-12T20:27:34.203Z,1.40
2023-03-12T20:30:03.670Z,1.10
2023-03-12T20:32:32.964Z,1.20
2023-03-12T20:35:00.958Z,1.23
2023-03-12T20:37:28.828Z,1.27
2023-03-12T20:39:56.667Z,1.20
2023-03-12T20:42:24.573Z,1.27
2023-03-12T20:44:52.444Z,1.20
2023-03-12T20:47:20.277Z,1.70
2023-03-12T20:49:49.461Z,1.20
2023-03-12T20:52:17.354Z,1.50
2023-03-12T20:54:45.207Z,1.37
2023-03-12T20:57:13.076Z,1.27
2023-03-12T20:59:40.921Z,1.50
2023-03-12T21:02:08.884Z,1.80
2023-03-12T21:04:36.959Z,1.70
2023-03-12T21:07:06.347Z,1.07
2023-03-12T21:09:34.389Z,1.63
2023-03-12T21:12:02.490Z,1.30
2023-03-12T21:14:30.497Z,1.53
2023-03-12T21:16:58.786Z,1.33
2023-03-12T21:19:29.499Z,1.40
2023-03-12T21:21:57.455Z,1.40
2023-03-12T21:24:26.732Z,1.70
2023-03-12T21:26:54.582Z,1.50
2023-03-12T21:29:22.801Z,1.60
2023-03-12T21:31:53.634Z,1.30
2023-03-12T21:34:21.612Z,1.57
2023-03-12T21:36:49.715Z,1.43
2023-03-12T21:39:18.157Z,1.90
2023-03-12T21:41:47.381Z,1.73
2023-03-12T21:44:16.576Z,2.00
2023-03-12T21:46:44.776Z,1.90
2023-03-12T21:49:14.012Z,1.43
2023-03-12T21:51:41.988Z,1.27
2023-03-12T21:54:09.831Z,1.80
2023-03-12T21:56:38.087Z,1.70
2023-03-12T21:59:07.325Z,1.60
2023-03-12T22:01:35.304Z,1.93
2023-03-12T22:04:03.440Z,1.40
2023-03-12T22:06:31.316Z,1.30
2023-03-12T22:08:59.273Z,1.53
2023-03-12T22:11:27.154Z,1.97
2023-03-12T22:13:54.987Z,1.57
2023-03-12T22:16:24.244Z,1.50
2023-03-12T22:18:52.153Z,1.50
2023-03-12T22:21:22.401Z,1.70
2023-03-12T22:23:52.417Z,1.50
2023-03-12T22:26:20.932Z,1.27
2023-03-12T22:28:50.697Z,1.83
2023-03-12T22:31:19.831Z,1.90
2023-03-12T22:33:49.221Z,2.07
2023-03-12T22:36:18.374Z,1.93
2023-03-12T22:38:47.621Z,2.00
2023-03-12T22:41:17.620Z,1.90
2023-03-12T22:43:46.698Z,1.40
2023-03-12T22:46:16.439Z,1.27
2023-03-12T22:48:44.584Z,1.83
2023-03-12T22:51:14.144Z,1.70
2023-03-12T22:53:42.047Z,1.60
2023-03-12T22:56:11.728Z,1.80
2023-03-12T22:58:39.918Z,1.63
2023-03-12T23:01:09.658Z,1.60
2023-03-12T23:03:39.174Z,1.47
2023-03-12T23:06:10.531Z,1.77
2023-03-12T23:08:40.032Z,1.60
2023-03-12T23:11:09.420Z,2.27
2023-03-12T23:13:40.212Z,1.90
2023-03-12T23:16:10.583Z,1.57
2023-03-12T23:18:39.034Z,1.83
2023-03-12T23:21:08.942Z,1.70
2023-03-12T23:23:39.428Z,1.83
2023-03-12T23:26:09.336Z,1.73
2023-03-12T23:28:37.294Z,1.77
2023-03-12T23:31:07.311Z,1.97
2023-03-12T23:33:36.262Z,1.30
2023-03-12T23:36:06.630Z,2.00
2023-03-12T23:38:37.390Z,1.90
2023-03-12T23:41:08.792Z,2.00
2023-03-12T23:43:36.872Z,1.63
2023-03-12T23:46:06.765Z,1.47
2023-03-12T23:48:36.310Z,1.70
2023-03-12T23:51:08.378Z,2.20
2023-03-12T23:53:37.041Z,1.83
2023-03-12T23:56:07.225Z,2.17
2023-03-12T23:58:37.240Z,1.70
